createdAt,value
2022-09-04T00:02:21.020Z,100.00
2022-09-04T00:04:58.410Z,100.00
2022-09-04T00:07:35.260Z,100.00
2022-09-04T00:10:29.937Z,100.00
2022-09-04T00:13:03.964Z,100.00
2022-09-04T00:15:41.207Z,100.00
2022-09-04T00:18:15.427Z,100.00
2022-09-04T00:20:50.773Z,100.00
2022-09-04T00:23:54.195Z,100.00
2022-09-04T00:26:28.099Z,100.00
2022-09-04T00:29:06.378Z,100.00
2022-09-04T00:31:38.853Z,100.00
2022-09-04T00:34:25.266Z,100.00
2022-09-04T00:36:58.623Z,100.00
2022-09-04T00:39:36.651Z,100.00
2022-09-04T00:42:32.433Z,100.00
2022-09-04T00:45:27.809Z,100.00
2022-09-04T00:47:58.951Z,100.00
2022-09-04T00:51:16.174Z,100.00
2022-09-04T00:54:40.839Z,100.00
2022-09-04T00:57:34.183Z,100.00
2022-09-04T01:00:18.701Z,100.00
2022-09-04T01:02:58.822Z,100.00
2022-09-04T01:06:08.417Z,100.00
2022-09-04T01:09:13.958Z,100.00
2022-09-04T01:11:49.280Z,100.00
2022-09-04T01:14:38.541Z,100.00
2022-09-04T01:17:18.088Z,100.00
2022-09-04T01:19:50.820Z,100.00
2022-09-04T01:22:21.629Z,100.00
2022-09-04T01:25:09.933Z,100.00
2022-09-04T01:27:43.700Z,100.00
2022-09-04T01:30:16.539Z,100.00
2022-09-04T01:32:51.439Z,100.00
2022-09-04T01:35:37.934Z,100.00
2022-09-04T01:38:36.254Z,100.00
2022-09-04T01:41:28.687Z,100.00
2022-09-04T01:43:58.713Z,100.00
2022-09-04T01:46:44.708Z,100.00
2022-09-04T01:49:45.310Z,100.00
2022-09-04T01:52:50.471Z,100.00
2022-09-04T01:55:44.970Z,100.00
2022-09-04T01:58:42.481Z,100.00
2022-09-04T02:01:30.005Z,100.00
2022-09-04T02:04:12.753Z,100.00
2022-09-04T02:06:52.858Z,100.00
2022-09-04T02:09:30.027Z,100.00
2022-09-04T02:12:38.414Z,100.00
2022-09-04T02:15:17.057Z,100.00
2022-09-04T02:18:12.473Z,100.00
2022-09-04T02:20:53.114Z,100.00
2022-09-04T02:23:30.810Z,100.00
2022-09-04T02:25:58.735Z,100.00
2022-09-04T02:28:50.283Z,100.00
2022-09-04T02:31:35.322Z,100.00
2022-09-04T02:34:18.763Z,100.00
2022-09-04T02:37:38.079Z,100.00
2022-09-04T02:40:37.775Z,100.00
2022-09-04T02:43:35.793Z,100.00
2022-09-04T02:47:00.968Z,100.00
2022-09-04T02:49:50.397Z,100.00
2022-09-04T02:52:55.243Z,100.00
2022-09-04T02:56:01.222Z,100.00
2022-09-04T02:58:39.870Z,100.00
2022-09-04T03:01:20.598Z,100.00
2022-09-04T03:04:00.342Z,100.00
2022-09-04T03:06:43.844Z,100.00
2022-09-04T03:09:24.889Z,100.00
2022-09-04T03:12:03.225Z,100.00
2022-09-04T03:14:58.436Z,100.00
2022-09-04T03:17:36.352Z,100.00
2022-09-04T03:20:22.656Z,100.00
2022-09-04T03:23:27.881Z,100.00
2022-09-04T03:26:04.938Z,100.00
2022-09-04T03:28:51.162Z,100.00
2022-09-04T03:31:37.691Z,100.00
2022-09-04T03:34:31.116Z,100.00
2022-09-04T03:37:05.048Z,100.00
2022-09-04T03:39:54.461Z,100.00
2022-09-04T03:42:50.630Z,100.00
2022-09-04T03:45:42.567Z,100.00
2022-09-04T03:48:32.240Z,100.00
2022-09-04T03:51:12.475Z,100.00
2022-09-04T03:53:41.754Z,100.00
2022-09-04T03:56:38.940Z,100.00
2022-09-04T03:59:31.558Z,100.00
2022-09-04T04:02:17.450Z,100.00
2022-09-04T04:05:03.031Z,100.00
2022-09-04T04:07:49.297Z,100.00
2022-09-04T04:10:20.299Z,100.00
2022-09-04T04:13:15.835Z,100.00
2022-09-04T04:15:54.712Z,100.00
2022-09-04T04:18:43.830Z,100.00
2022-09-04T04:21:29.906Z,100.00
2022-09-04T04:24:48.259Z,100.00
2022-09-04T04:27:16.413Z,100.00
2022-09-04T04:30:07.881Z,100.00
2022-09-04T04:33:03.711Z,100.00
2022-09-04T04:35:49.879Z,100.00
2022-09-04T04:38:25.602Z,100.00
2022-09-04T04:41:05.859Z,100.00
2022-09-04T04:43:51.548Z,100.00
2022-09-04T04:46:29.300Z,100.00
2022-09-04T04:49:26.328Z,100.00
2022-09-04T04:52:23.833Z,100.00
2022-09-04T04:55:31.199Z,100.00
2022-09-04T04:58:08.265Z,100.00
2022-09-04T05:00:48.023Z,100.00
2022-09-04T05:03:35.186Z,100.00
2022-09-04T05:06:15.240Z,100.00
2022-09-04T05:08:52.492Z,100.00
2022-09-04T05:11:35.385Z,100.00
2022-09-04T05:14:25.407Z,100.00
2022-09-04T05:17:11.865Z,100.00
2022-09-04T05:19:43.814Z,100.00
2022-09-04T05:22:33.663Z,100.00
2022-09-04T05:25:02.400Z,100.00
2022-09-04T05:27:45.154Z,100.00
2022-09-04T05:30:28.290Z,100.00
2022-09-04T05:33:06.097Z,100.00
2022-09-04T05:36:27.167Z,100.00
2022-09-04T05:39:23.028Z,100.00
2022-09-04T05:42:02.182Z,100.00
2022-09-04T05:44:53.081Z,100.00
2022-09-04T05:47:33.616Z,100.00
2022-09-04T05:50:08.361Z,100.00
2022-09-04T05:52:58.125Z,100.00
2022-09-04T05:55:32.131Z,100.00
2022-09-04T05:58:00.316Z,100.00
2022-09-04T06:00:53.591Z,100.00
2022-09-04T06:03:33.186Z,100.00
2022-09-04T06:06:30.150Z,100.00
2022-09-04T06:09:19.885Z,100.00
2022-09-04T06:11:56.695Z,100.00
2022-09-04T06:14:43.515Z,100.00
2022-09-04T06:17:53.022Z,100.00
2022-09-04T06:20:39.726Z,100.00
2022-09-04T06:23:13.614Z,100.00
2022-09-04T06:26:08.916Z,100.00
2022-09-04T06:28:46.237Z,100.00
2022-09-04T06:31:20.503Z,100.00
2022-09-04T06:34:21.707Z,100.00
2022-09-04T06:37:11.679Z,100.00
2022-09-04T06:40:03.553Z,100.00
2022-09-04T06:43:08.590Z,100.00
2022-09-04T06:45:49.041Z,100.00
2022-09-04T06:48:53.507Z,100.00
2022-09-04T06:51:35.287Z,100.00
2022-09-04T06:54:32.290Z,100.00
2022-09-04T06:57:03.364Z,100.00
2022-09-04T06:59:46.439Z,100.00
2022-09-04T07:02:26.463Z,100.00
2022-09-04T07:04:54.590Z,100.00
2022-09-04T07:07:59.948Z,100.00
2022-09-04T07:10:36.119Z,100.00
2022-09-04T07:13:33.260Z,100.00
2022-09-04T07:16:25.418Z,100.00
2022-09-04T07:19:14.451Z,100.00
2022-09-04T07:22:06.715Z,100.00
2022-09-04T07:24:49.316Z,100.00
2022-09-04T07:27:40.672Z,100.00
2022-09-04T07:30:11.501Z,100.00
2022-09-04T07:32:46.014Z,100.00
2022-09-04T07:35:40.923Z,100.00
2022-09-04T07:38:08.952Z,100.00
2022-09-04T07:40:44.214Z,100.00
2022-09-04T07:43:27.409Z,100.00
2022-09-04T07:46:11.040Z,100.00
2022-09-04T07:48:51.257Z,100.00
2022-09-04T07:51:26.545Z,100.00
2022-09-04T07:54:22.525Z,100.00
2022-09-04T07:57:22.039Z,100.00
2022-09-04T08:00:10.687Z,100.00
2022-09-04T08:03:03.265Z,100.00
2022-09-04T08:05:41.323Z,100.00
2022-09-04T08:08:15.808Z,100.00
2022-09-04T08:11:16.065Z,100.00
2022-09-04T08:13:55.603Z,100.00
2022-09-04T08:17:00.073Z,100.00
2022-09-04T08:19:48.230Z,100.00
2022-09-04T08:22:43.544Z,100.00
2022-09-04T08:25:28.046Z,100.00
2022-09-04T08:28:17.678Z,100.00
2022-09-04T08:31:16.898Z,100.00
2022-09-04T08:33:49.266Z,100.00
2022-09-04T08:36:49.076Z,100.00
2022-09-04T08:39:20.247Z,100.00
2022-09-04T08:42:05.968Z,100.00
2022-09-04T08:45:12.462Z,100.00
2022-09-04T08:48:32.741Z,100.00
2022-09-04T08:51:41.271Z,100.00
2022-09-04T08:54:43.436Z,100.00
2022-09-04T08:57:40.173Z,100.00
2022-09-04T09:00:11.086Z,100.00
2022-09-04T09:02:57.603Z,100.00
2022-09-04T09:05:32.120Z,100.00
2022-09-04T09:08:03.082Z,100.00
2022-09-04T09:10:51.765Z,100.00
2022-09-04T09:13:53.092Z,100.00
2022-09-04T09:16:47.903Z,100.00
2022-09-04T09:19:45.529Z,100.00
2022-09-04T09:22:23.645Z,100.00
2022-09-04T09:25:13.168Z,100.00
2022-09-04T09:28:18.342Z,100.00
2022-09-04T09:31:17.333Z,100.00
2022-09-04T09:34:09.404Z,100.00
2022-09-04T09:36:37.561Z,100.00
2022-09-04T09:39:14.795Z,100.00
2022-09-04T09:42:20.580Z,100.00
2022-09-04T09:45:18.730Z,100.00
2022-09-04T09:48:24.159Z,100.00
2022-09-04T09:50:55.249Z,100.00
2022-09-04T09:53:59.310Z,100.00
2022-09-04T09:56:55.781Z,100.00
2022-09-04T09:59:44.861Z,100.00
2022-09-04T10:02:44.280Z,100.00
2022-09-04T10:05:19.423Z,100.00
2022-09-04T10:08:36.031Z,100.00
2022-09-04T10:11:41.066Z,100.00
2022-09-04T10:14:09.097Z,100.00
2022-09-04T10:17:17.314Z,100.00
2022-09-04T10:20:20.614Z,100.00
2022-09-04T10:22:57.861Z,100.00
2022-09-04T10:25:43.300Z,100.00
2022-09-04T10:28:48.766Z,100.00
2022-09-04T10:31:44.690Z,100.00
2022-09-04T10:34:35.624Z,100.00
2022-09-04T10:37:06.389Z,100.00
2022-09-04T10:39:56.126Z,100.00
2022-09-04T10:42:46.292Z,100.00
2022-09-04T10:45:29.498Z,100.00
2022-09-04T10:48:28.429Z,100.00
2022-09-04T10:51:21.215Z,100.00
2022-09-04T10:54:07.804Z,100.00
2022-09-04T10:56:48.701Z,100.00
2022-09-04T10:59:25.043Z,100.00
2022-09-04T11:02:19.187Z,100.00
2022-09-04T11:05:07.270Z,100.00
2022-09-04T11:08:06.811Z,100.00
2022-09-04T11:10:59.479Z,100.00
2022-09-04T11:13:50.651Z,100.00
2022-09-04T11:16:29.457Z,100.00
2022-09-04T11:19:24.271Z,100.00
2022-09-04T11:22:17.265Z,100.00
2022-09-04T11:25:19.217Z,100.00
2022-09-04T11:28:15.853Z,100.00
2022-09-04T11:30:55.620Z,100.00
2022-09-04T11:33:53.295Z,99.80
2022-09-04T11:36:44.412Z,97.58
2022-09-04T11:39:20.014Z,99.33
2022-09-04T11:42:20.520Z,99.40
2022-09-04T11:45:23.743Z,95.58
2022-09-04T11:48:04.059Z,98.05
2022-09-04T11:51:01.086Z,99.82
2022-09-04T11:54:00.487Z,100.00
2022-09-04T11:56:45.246Z,99.80
2022-09-04T11:59:32.070Z,96.50
2022-09-04T12:02:22.526Z,92.69
2022-09-04T12:05:39.467Z,96.07
2022-09-04T12:08:56.270Z,89.00
2022-09-04T12:11:41.052Z,83.78
2022-09-04T12:14:56.507Z,82.88
2022-09-04T12:17:36.875Z,81.92
2022-09-04T12:20:24.364Z,77.41
2022-09-04T12:23:04.914Z,73.25
2022-09-04T12:25:58.097Z,68.81
2022-09-04T12:29:00.001Z,72.93
2022-09-04T12:31:51.160Z,75.75
2022-09-04T12:34:56.503Z,80.58
2022-09-04T12:37:54.199Z,78.07
2022-09-04T12:40:41.834Z,75.96
2022-09-04T12:43:23.027Z,71.38
2022-09-04T12:45:57.816Z,68.74
2022-09-04T12:48:36.093Z,67.46
2022-09-04T12:51:14.177Z,67.15
2022-09-04T12:53:49.290Z,64.11
2022-09-04T12:56:30.677Z,61.71
2022-09-04T12:59:19.276Z,59.54
2022-09-04T13:01:57.108Z,57.03
2022-09-04T13:04:31.257Z,59.29
2022-09-04T13:07:21.518Z,66.83
2022-09-04T13:10:01.793Z,68.91
2022-09-04T13:12:33.143Z,69.86
2022-09-04T13:15:10.719Z,65.13
2022-09-04T13:17:53.176Z,65.13
2022-09-04T13:20:41.647Z,63.93
2022-09-04T13:23:37.335Z,63.16
2022-09-04T13:26:24.806Z,59.76
2022-09-04T13:29:17.024Z,61.79
2022-09-04T13:31:54.324Z,61.99
2022-09-04T13:34:49.992Z,60.91
2022-09-04T13:37:23.998Z,64.15
2022-09-04T13:40:01.746Z,62.41
2022-09-04T13:42:52.120Z,59.77
2022-09-04T13:45:28.576Z,64.23
2022-09-04T13:48:01.423Z,68.99
2022-09-04T13:50:55.124Z,69.77
2022-09-04T13:53:26.315Z,78.69
2022-09-04T13:56:10.247Z,81.13
2022-09-04T13:58:48.769Z,84.91
2022-09-04T14:01:22.752Z,90.30
2022-09-04T14:04:01.870Z,90.26
2022-09-04T14:06:32.924Z,86.00
2022-09-04T14:09:05.623Z,85.51
2022-09-04T14:11:53.210Z,86.60
2022-09-04T14:14:48.825Z,84.28
2022-09-04T14:17:27.134Z,79.73
2022-09-04T14:20:22.554Z,75.71
2022-09-04T14:23:01.917Z,70.54
2022-09-04T14:26:28.021Z,71.88
2022-09-04T14:29:27.556Z,79.53
2022-09-04T14:32:18.896Z,85.38
2022-09-04T14:35:02.905Z,81.83
2022-09-04T14:37:59.430Z,84.56
2022-09-04T14:40:34.530Z,86.84
2022-09-04T14:43:47.461Z,88.89
2022-09-04T14:46:19.297Z,94.31
2022-09-04T14:48:59.884Z,98.30
2022-09-04T14:51:28.976Z,99.92
2022-09-04T14:54:04.684Z,100.00
2022-09-04T14:57:01.570Z,100.00
2022-09-04T14:59:39.064Z,100.00
2022-09-04T15:02:10.674Z,100.00
2022-09-04T15:05:22.858Z,96.57
2022-09-04T15:07:56.759Z,94.94
2022-09-04T15:10:31.580Z,95.06
2022-09-04T15:13:35.473Z,94.81
2022-09-04T15:16:14.274Z,84.44
2022-09-04T15:18:59.235Z,85.18
2022-09-04T15:21:39.599Z,94.81
2022-09-04T15:24:34.090Z,99.70
2022-09-04T15:27:05.678Z,98.37
2022-09-04T15:29:48.648Z,98.62
2022-09-04T15:32:28.782Z,99.50
2022-09-04T15:35:21.278Z,100.00
2022-09-04T15:38:05.481Z,100.00
2022-09-04T15:40:59.712Z,99.65
2022-09-04T15:43:31.595Z,92.20
2022-09-04T15:46:06.027Z,87.76
2022-09-04T15:48:34.771Z,82.66
2022-09-04T15:51:22.122Z,77.94
2022-09-04T15:54:15.375Z,73.77
2022-09-04T15:57:09.061Z,69.84
2022-09-04T15:59:45.505Z,73.04
2022-09-04T16:02:38.878Z,76.19
2022-09-04T16:05:23.554Z,79.99
2022-09-04T16:08:24.008Z,77.63
2022-09-04T16:11:19.057Z,75.91
2022-09-04T16:13:51.839Z,78.75
2022-09-04T16:16:53.862Z,87.49
2022-09-04T16:19:45.792Z,94.29
2022-09-04T16:22:52.771Z,98.53
2022-09-04T16:25:35.280Z,100.00
2022-09-04T16:28:34.488Z,100.00
2022-09-04T16:31:06.761Z,100.00
2022-09-04T16:33:44.925Z,100.00
2022-09-04T16:36:22.024Z,100.00
2022-09-04T16:39:15.380Z,100.00
2022-09-04T16:41:50.728Z,100.00
2022-09-04T16:44:23.890Z,100.00
2022-09-04T16:47:03.729Z,100.00
2022-09-04T16:49:47.166Z,100.00
2022-09-04T16:52:22.327Z,100.00
2022-09-04T16:55:10.249Z,100.00
2022-09-04T16:57:51.559Z,100.00
2022-09-04T17:00:22.475Z,100.00
2022-09-04T17:03:01.320Z,100.00
2022-09-04T17:05:35.341Z,100.00
2022-09-04T17:08:36.154Z,100.00
2022-09-04T17:11:24.316Z,100.00
2022-09-04T17:13:58.603Z,100.00
2022-09-04T17:16:40.347Z,100.00
2022-09-04T17:19:14.108Z,100.00
2022-09-04T17:28:30.978Z,100.00
2022-09-04T17:28:59.893Z,100.00
2022-09-04T17:31:59.126Z,100.00
2022-09-04T17:40:37.252Z,100.00
2022-09-04T17:40:47.774Z,100.00
2022-09-04T17:41:36.418Z,100.00
2022-09-04T17:44:22.477Z,100.00
2022-09-04T17:47:13.753Z,100.00
2022-09-04T17:49:49.218Z,100.00
2022-09-04T17:52:31.191Z,100.00
2022-09-04T17:55:06.532Z,100.00
2022-09-04T17:57:55.814Z,100.00
2022-09-04T18:00:37.748Z,100.00
2022-09-04T18:03:25.656Z,100.00
2022-09-04T18:06:03.176Z,100.00
2022-09-04T18:08:56.091Z,100.00
2022-09-04T18:11:40.935Z,100.00
2022-09-04T18:14:39.224Z,100.00
2022-09-04T18:17:34.345Z,100.00
2022-09-04T18:20:25.118Z,100.00
2022-09-04T18:23:18.206Z,100.00
2022-09-04T18:26:10.097Z,100.00
2022-09-04T18:28:42.098Z,100.00
2022-09-04T18:36:58.782Z,100.00
2022-09-04T18:37:16.829Z,100.00
2022-09-04T18:37:46.702Z,100.00
2022-09-04T18:40:42.968Z,100.00
2022-09-04T18:50:20.529Z,100.00
2022-09-04T18:50:29.205Z,100.00
2022-09-04T18:50:43.338Z,100.00
2022-09-04T18:51:59.377Z,100.00
2022-09-04T18:54:54.082Z,100.00
2022-09-04T18:57:48.171Z,100.00
2022-09-04T19:00:29.116Z,100.00
2022-09-04T19:03:14.230Z,100.00
2022-09-04T19:05:46.925Z,100.00
2022-09-04T19:08:25.852Z,100.00
2022-09-04T19:10:59.296Z,100.00
2022-09-04T19:13:34.608Z,100.00
2022-09-04T19:16:14.150Z,100.00
2022-09-04T19:19:03.934Z,100.00
2022-09-04T19:21:45.601Z,100.00
2022-09-04T19:24:41.258Z,100.00
2022-09-04T19:27:26.814Z,100.00
2022-09-04T19:30:18.278Z,100.00
2022-09-04T19:33:03.562Z,100.00
2022-09-04T19:35:49.251Z,100.00
2022-09-04T19:40:58.444Z,100.00
2022-09-04T19:46:06.802Z,100.00
2022-09-04T19:46:11.433Z,100.00
2022-09-04T19:47:27.390Z,100.00
2022-09-04T19:53:18.058Z,100.00
2022-09-04T19:53:37.946Z,100.00
2022-09-04T19:56:23.076Z,100.00
2022-09-04T19:59:00.980Z,100.00
2022-09-04T20:01:52.157Z,100.00
2022-09-04T20:04:41.437Z,100.00
2022-09-04T20:07:17.736Z,100.00
2022-09-04T20:09:53.361Z,100.00
2022-09-04T20:12:34.121Z,100.00
2022-09-04T20:15:13.150Z,100.00
2022-09-04T20:18:10.112Z,100.00
2022-09-04T20:20:54.961Z,100.00
2022-09-04T20:23:43.355Z,100.00
2022-09-04T20:26:20.601Z,100.00
2022-09-04T20:29:00.948Z,100.00
2022-09-04T20:31:49.744Z,100.00
2022-09-04T20:34:26.902Z,100.00
2022-09-04T20:37:15.997Z,100.00
2022-09-04T20:39:53.051Z,100.00
2022-09-04T20:42:56.215Z,100.00
2022-09-04T20:46:46.856Z,100.00
2022-09-04T20:52:54.414Z,100.00
2022-09-04T20:52:58.061Z,100.00
2022-09-04T20:54:33.440Z,100.00
2022-09-04T20:59:08.935Z,100.00
2022-09-04T21:03:11.424Z,100.00
2022-09-04T21:03:22.836Z,100.00
2022-09-04T21:06:10.507Z,100.00
2022-09-04T21:08:51.051Z,100.00
2022-09-04T21:11:40.921Z,100.00
2022-09-04T21:14:13.782Z,100.00
2022-09-04T21:17:06.906Z,100.00
2022-09-04T21:20:31.452Z,100.00
2022-09-04T21:23:21.998Z,100.00
2022-09-04T21:26:08.674Z,100.00
2022-09-04T21:28:52.863Z,100.00
2022-09-04T21:31:30.182Z,100.00
2022-09-04T21:34:10.187Z,100.00
2022-09-04T21:36:59.619Z,100.00
2022-09-04T21:40:05.532Z,100.00
2022-09-04T21:43:21.842Z,100.00
2022-09-04T21:46:29.189Z,100.00
2022-09-04T21:49:34.850Z,100.00
2022-09-04T21:52:22.718Z,100.00
2022-09-04T22:00:53.041Z,100.00
2022-09-04T22:02:38.664Z,100.00
2022-09-04T22:02:42.617Z,100.00
2022-09-04T22:05:02.364Z,100.00
2022-09-04T22:10:57.747Z,100.00
2022-09-04T22:13:28.701Z,100.00
2022-09-04T22:14:03.062Z,100.00
2022-09-04T22:16:31.400Z,100.00
2022-09-04T22:19:16.259Z,100.00
2022-09-04T22:21:50.948Z,100.00
2022-09-04T22:24:41.994Z,100.00
2022-09-04T22:28:08.168Z,100.00
2022-09-04T22:31:09.752Z,100.00
2022-09-04T22:34:15.343Z,100.00
2022-09-04T22:37:22.636Z,100.00
2022-09-04T22:39:53.552Z,100.00
2022-09-04T22:42:36.285Z,100.00
2022-09-04T22:45:37.459Z,100.00
2022-09-04T22:48:33.170Z,100.00
2022-09-04T22:51:04.166Z,100.00
2022-09-04T22:53:37.978Z,100.00
2022-09-04T22:56:24.830Z,100.00
2022-09-04T22:59:27.061Z,100.00
2022-09-04T23:02:47.007Z,100.00
2022-09-04T23:05:47.007Z,100.00
2022-09-04T23:13:50.838Z,100.00
2022-09-04T23:14:01.028Z,100.00
2022-09-04T23:15:12.971Z,100.00
2022-09-04T23:19:48.090Z,100.00
2022-09-04T23:26:42.066Z,100.00
2022-09-04T23:26:44.991Z,100.00
2022-09-04T23:27:26.092Z,100.00
2022-09-04T23:29:57.632Z,100.00
2022-09-04T23:32:39.471Z,100.00
2022-09-04T23:35:34.054Z,100.00
2022-09-04T23:38:38.325Z,100.00
2022-09-04T23:41:52.958Z,100.00
2022-09-04T23:44:54.531Z,100.00
2022-09-04T23:48:27.035Z,100.00
2022-09-04T23:52:17.942Z,100.00
2022-09-04T23:55:49.463Z,100.00
2022-09-04T23:59:09.015Z,100.00
